Latest Weather Observations for Laverton

IDW60801

Issued at 12:53 pm WST Thursday 23 January 2020 (issued every 10 minutes, with the page automatically refreshed every 10 minutes)

About weather observations | Map of weather stations | Latest weather observations for WA | Other Formats
Station Details ID: 012305 Name: LAVERTON AERO Lat: -28.61 Lon: 122.42 Height: 464.3 m
Data from the previous 72 hours. | See also: Recent months at Laverton
Date/Time
WST
Temp
°C
App
Temp
°C
Dew
Point
°C
Rel
Hum
%
Delta-T
°C
Wind Press
QNH
hPa
Press
MSL
hPa
Rain since
9am
mm
Dir  Spd
km/h
Gust
km/h
Spd
kts
Gust
kts
23/12:30pm 28.2 24.8 9.0 30 10.8 S 17 35 9 19 1014.4 1011.0 0.0
23/12:00pm 27.7 23.6 8.6 30 10.6 SSE 20 33 11 18 1014.8 1011.4 0.0
23/11:30am 27.4 22.8 8.3 30 10.6 SSE 22 32 12 17 1015.1 1011.8 0.0
23/11:00am 26.4 22.4 8.4 32 9.9 S 19 28 10 15 1015.5 1012.2 0.0
23/10:30am 26.3 22.2 8.8 33 9.7 SSE 20 32 11 17 1015.6 1012.3 0.0
23/10:00am 26.5 22.8 8.0 31 10.1 SSE 17 28 9 15 1015.6 1012.3 0.0
23/09:30am 25.2 20.8 7.3 32 9.6 SE 20 30 11 16 1015.6 1012.3 0.0
23/09:00am 24.4 20.0 7.5 34 9.1 SSE 20 32 11 17 1015.5 1012.2 0.0
23/08:30am 24.2 19.3 6.9 33 9.2 SSE 22 30 12 16 1015.5 1012.2 0.0
23/08:00am 23.5 18.6 6.7 34 8.9 SE 22 30 12 16 1015.4 1012.1 0.0
23/07:30am 23.2 17.9 6.9 35 8.6 SSE 24 32 13 17 1015.2 1011.9 0.0
23/07:00am 22.2 17.8 7.2 38 7.9 SSE 20 26 11 14 1015.1 1011.8 0.0
23/06:30am 21.6 16.4 7.4 40 7.5 SSE 24 33 13 18 1014.9 1011.6 0.0
23/06:00am 20.9 17.5 7.5 42 7.1 S 15 19 8 10 1014.6 1011.2 0.0
23/05:30am 20.1 17.0 7.1 43 6.8 SSE 13 17 7 9 1014.2 1010.8 0.0
23/05:00am 20.3 17.1 7.0 42 6.9 SSE 13 19 7 10 1013.7 1010.4 0.0
23/04:30am 20.7 16.2 6.3 39 7.4 SSE 19 24 10 13 1013.5 1010.2 0.0
23/04:00am 20.5 17.1 6.1 39 7.4 SSE 13 19 7 10 1013.2 1009.9 0.0
23/03:30am 20.4 17.8 6.0 39 7.4 SSE 9 11 5 6 1012.7 1009.3 0.0
23/03:00am 20.4 17.8 6.0 39 7.4 SSE 9 11 5 6 1012.5 1009.1 0.0
23/02:30am 20.9 18.6 5.7 37 7.7 SSE 7 9 4 5 1012.4 1009.0 0.0
23/02:00am 21.6 18.5 5.5 35 8.2 SSE 11 13 6 7 1012.4 1009.0 0.0
23/01:30am 21.7 19.3 5.2 34 8.4 SSE 7 11 4 6 1012.4 1009.0 0.0
23/01:00am 22.0 19.3 5.4 34 8.5 SSE 9 11 5 6 1012.5 1009.1 0.0
23/12:30am 22.8 19.3 5.3 32 9.0 SSE 13 15 7 8 1012.6 1009.2 0.0
23/12:00am 22.8 20.0 5.3 32 9.0 SSW 9 13 5 7 1012.8 1009.4 0.0
 
Date/Time
WST
Temp
°C
App
Temp
°C
Dew
Point
°C
Rel
Hum
%
Delta-T
°C
Wind Press
QNH
hPa
Press
MSL
hPa
Rain since
9am
mm
Dir  Spd
km/h
Gust
km/h
Spd
kts
Gust
kts
22/11:30pm 23.2 21.0 5.2 31 9.2 SSE 6 7 3 4 1012.7 1009.3 0.0
22/11:00pm 24.0 21.5 4.9 29 9.8 SSE 7 9 4 5 1012.7 1009.3 0.0
22/10:30pm 24.8 21.5 4.5 27 10.4 S 11 13 6 7 1012.9 1009.6 0.0
22/10:00pm 25.4 21.7 4.5 26 10.7 SSE 13 15 7 8 1012.9 1009.6 0.0
22/09:30pm 26.0 21.4 3.9 24 11.3 S 17 22 9 12 1012.6 1009.2 0.0
22/09:00pm 26.5 22.3 3.7 23 11.6 S 15 20 8 11 1012.3 1008.9 0.0
22/08:30pm 27.0 23.1 3.5 22 12.0 SSW 13 19 7 10 1011.8 1008.5 0.0
22/08:00pm 27.4 23.5 3.2 21 12.3 SSW 13 19 7 10 1011.6 1008.3 0.0
22/07:30pm 27.7 23.0 3.4 21 12.4 S 17 22 9 12 1011.3 1008.0 0.0
22/07:00pm 28.2 22.9 3.1 20 12.8 S 20 26 11 14 1011.0 1007.7 0.0
22/06:30pm 28.6 22.5 2.7 19 13.1 SSW 24 33 13 18 1010.8 1007.4 0.0
22/06:00pm 29.0 23.5 3.8 20 13.1 S 22 32 12 17 1010.6 1007.2 0.0
22/05:30pm 29.3 23.6 4.7 21 13.0 SSW 24 37 13 20 1010.3 1006.9 0.0
22/05:00pm 30.2 23.9 5.5 21 13.3 SSW 28 39 15 21 1010.2 1006.8 0.0
22/04:30pm 29.6 23.5 5.0 21 13.0 SSW 26 37 14 20 1010.1 1006.7 0.0
22/04:00pm 29.2 23.3 6.0 23 12.5 SW 26 39 14 21 1010.1 1006.7 0.0
22/03:30pm 29.2 23.9 6.6 24 12.3 SW 24 35 13 19 1010.2 1006.8 0.0
22/03:00pm 28.8 24.3 6.8 25 12.0 SW 20 32 11 17 1010.4 1007.0 0.0
22/02:30pm 28.8 23.6 7.4 26 11.8 WSW 24 37 13 20 1010.6 1007.2 0.0
22/02:00pm 28.6 23.7 8.3 28 11.3 SW 24 41 13 22 1010.9 1007.6 0.0
22/01:30pm 27.0 22.2 7.5 29 10.6 SW 22 30 12 16 1011.2 1007.9 0.0
22/01:00pm 27.4 23.3 8.8 31 10.4 SSW 20 33 11 18 1011.5 1008.2 0.0
22/12:30pm 27.2 24.2 9.1 32 10.2 SW 15 28 8 15 1011.8 1008.5 0.0
22/12:00pm 25.4 21.9 8.8 35 9.2 SW 17 32 9 17 1012.4 1009.0 0.0
22/11:30am 25.9 21.8 10.1 37 9.0 S 22 35 12 19 1012.7 1009.3 0.0
22/11:00am 25.5 22.0 10.1 38 8.7 S 19 30 10 16 1013.0 1009.7 0.0
22/10:30am 24.1 21.0 10.4 42 7.7 SE 17 26 9 14 1013.3 1010.0 0.0
22/10:00am 24.3 21.4 10.9 43 7.6 SSE 17 22 9 12 1013.3 1010.0 0.0
22/09:30am 22.8 19.5 10.9 47 6.7 S 19 28 10 15 1013.3 1010.0 0.0
22/09:00am 22.2 19.0 11.3 50 6.2 SSE 19 28 10 15 1013.4 1010.1 0.0
22/08:30am 21.5 18.5 11.8 54 5.5 SSE 19 26 10 14 1013.4 1010.1 0.0
22/08:00am 21.0 18.0 11.9 56 5.2 ESE 19 26 10 14 1013.1 1009.8 0.0
22/07:30am 20.8 16.9 12.2 58 4.9 SE 24 33 13 18 1013.2 1009.9 0.0
22/07:00am 20.1 16.6 12.3 61 4.5 SE 22 30 12 16 1013.1 1009.8 0.0
22/06:30am 19.7 16.0 12.7 64 4.0 SE 24 33 13 18 1012.8 1009.4 0.0
22/06:00am 19.5 15.5 13.0 66 3.8 SE 26 33 14 18 1012.4 1009.0 0.0
22/05:30am 19.4 15.0 12.9 66 3.7 SE 28 39 15 21 1012.0 1008.6 0.0
22/05:00am 20.0 16.8 13.2 65 4.0 SE 22 32 12 17 1011.0 1007.7 0.0
22/04:30am 20.6 17.2 13.6 64 4.1 SE 24 33 13 18 1010.4 1007.0 0.0
22/04:00am 21.0 16.9 13.7 63 4.3 SE 28 39 15 21 1010.1 1006.7 0.0
22/03:30am 21.6 16.9 13.2 59 4.9 SE 30 41 16 22 1009.7 1006.3 0.0
22/03:00am 22.5 17.8 13.3 56 5.4 SE 30 44 16 24 1009.4 1006.1 0.0
22/02:30am 23.5 18.1 12.8 51 6.3 SE 33 48 18 26 1009.0 1005.7 0.0
22/02:17am 24.0 18.5 12.3 48 6.8 SSE 33 52 18 28 1008.9 1005.5 0.0
22/02:08am 24.7 19.6 10.6 41 8.0 SSE 28 52 15 28 1008.7 1005.3 0.0
22/02:00am 26.4 20.7 4.8 25 11.2 SSE 24 33 13 18 1008.5 1005.1 0.0
22/01:30am 27.3 21.9 4.4 23 11.9 S 22 32 12 17 1008.3 1004.9 0.0
22/01:00am 27.7 22.9 4.7 23 12.0 S 19 22 10 12 1008.2 1004.8 0.0
22/12:30am 28.2 23.2 4.5 22 12.4 SSW 20 28 11 15 1008.2 1004.8 0.0
22/12:00am 29.0 23.1 3.8 20 13.1 S 24 32 13 17 1008.2 1004.8 0.0
 
Date/Time
WST
Temp
°C
App
Temp
°C
Dew
Point
°C
Rel
Hum
%
Delta-T
°C
Wind Press
QNH
hPa
Press
MSL
hPa
Rain since
9am
mm
Dir  Spd
km/h
Gust
km/h
Spd
kts
Gust
kts
21/11:30pm 29.4 24.9 4.1 20 13.2 S 17 22 9 12 1008.1 1004.7 0.0
21/11:00pm 30.3 25.1 3.4 18 14.0 S 20 30 11 16 1008.1 1004.7 0.0
21/10:30pm 30.7 25.5 3.7 18 14.1 S 20 28 11 15 1008.1 1004.7 0.0
21/10:00pm 31.2 25.9 4.9 19 14.1 S 22 32 12 17 1008.1 1004.7 0.0
21/09:30pm 31.7 27.3 7.4 22 13.6 S 20 28 11 15 1007.9 1004.5 0.0
21/09:00pm 32.6 25.9 7.4 21 14.2 S 32 44 17 24 1007.4 1004.0 0.0
21/08:30pm 33.6 27.2 6.8 19 14.9 SSW 30 43 16 23 1006.8 1003.4 0.0
21/08:07pm 34.5 28.2 5.9 17 15.8 SSW 28 44 15 24 1006.3 1002.9 0.0
21/08:00pm 35.0 30.2 4.5 15 16.6 SSW 19 26 10 14 1006.1 1002.7 0.0
21/07:30pm 35.9 31.0 5.2 15 16.9 SW 20 28 11 15 1005.7 1002.3 0.0
21/07:00pm 36.3 31.9 6.5 16 16.8 WSW 19 26 10 14 1005.3 1001.9 0.0
21/06:30pm 36.5 32.5 6.6 16 16.9 W 17 22 9 12 1005.2 1001.8 0.0
21/06:00pm 36.7 32.5 5.9 15 17.2 W 17 24 9 13 1005.1 1001.7 0.0
21/05:30pm 37.2 31.0 6.3 15 17.4 W 28 37 15 20 1004.9 1001.5 0.0
21/05:00pm 37.2 31.2 5.3 14 17.7 WSW 26 39 14 21 1004.9 1001.5 0.0
21/04:30pm 37.3 32.6 5.3 14 17.7 WSW 19 32 10 17 1005.2 1001.8 0.0
21/04:00pm 37.5 30.2 4.4 13 18.2 WSW 32 43 17 23 1005.3 1001.9 0.0
21/03:30pm 38.9 34.5 6.6 14 18.4 WSW 19 41 10 22 1005.7 1002.3 0.0
21/03:13pm 37.4 31.3 6.4 15 17.5 WSW 28 44 15 24 1005.9 1002.5 0.0
21/03:00pm 37.3 32.7 6.3 15 17.5 W 20 33 11 18 1006.0 1002.6 0.0
21/02:30pm 38.0 32.5 5.9 14 18.0 WSW 24 46 13 25 1006.2 1002.8 0.0
21/02:12pm 37.6 31.3 5.6 14 17.9 W 28 52 15 28 1006.4 1003.0 0.0
21/02:00pm 36.7 31.8 6.8 16 17.0 W 22 35 12 19 1006.5 1003.1 0.0
21/01:30pm 35.8 30.0 6.1 16 16.6 WNW 26 41 14 22 1007.1 1003.8 0.0
21/01:04pm 36.5 30.4 6.6 16 16.9 WSW 28 48 15 26 1007.6 1004.2 0.0
21/01:00pm 37.1 32.2 7.1 16 17.1 WSW 22 48 12 26 1007.7 1004.3 0.0
21/12:31pm 37.7 33.0 7.6 16 17.3 WNW 22 52 12 28 1007.9 1004.5 0.0
21/12:30pm 37.1 32.8 7.1 16 17.1 WNW 19 52 10 28 1007.9 1004.5 0.0
21/12:00pm 36.1 30.9 7.2 17 16.4 WNW 24 43 13 23 1008.7 1005.3 0.0
21/11:30am 35.8 30.9 7.0 17 16.3 WNW 22 39 12 21 1009.1 1005.8 0.0
21/11:00am 34.0 29.0 6.3 18 15.4 NW 22 37 12 20 1009.7 1006.3 0.0
21/10:30am 33.4 29.2 5.9 18 15.1 NW 17 33 9 18 1010.1 1006.7 0.0
21/10:00am 33.7 29.6 6.1 18 15.2 NW 17 28 9 15 1010.5 1007.1 0.0
21/09:30am 32.3 28.1 5.7 19 14.5 NNW 17 22 9 12 1010.9 1007.6 0.0
21/09:00am 31.2 27.9 6.3 21 13.6 N 13 20 7 11 1011.0 1007.7 0.0
21/08:30am 29.5 25.9 6.8 24 12.4 N 15 20 8 11 1011.2 1007.9 0.0
21/08:00am 28.6 24.3 7.2 26 11.7 NNE 19 22 10 12 1011.3 1008.0 0.0
21/07:30am 27.3 23.0 7.7 29 10.7 N 20 24 11 13 1011.4 1008.1 0.0
21/07:00am 25.7 21.4 7.8 32 9.8 NNE 20 24 11 13 1011.4 1008.1 0.0
21/06:30am 24.6 20.5 7.7 34 9.1 NNE 19 26 10 14 1011.4 1008.1 0.0
21/06:00am 23.5 19.3 7.6 36 8.5 NE 19 26 10 14 1011.1 1007.8 0.0
21/05:30am 22.3 19.4 8.1 40 7.6 NE 13 20 7 11 1010.8 1007.4 0.0
21/05:00am 21.7 19.6 8.2 42 7.2 NE 9 13 5 7 1010.8 1007.4 0.0
21/04:30am 21.8 19.3 8.3 42 7.3 NE 11 13 6 7 1010.7 1007.3 0.0
21/04:00am 22.4 19.8 7.8 39 7.8 ENE 11 15 6 8 1010.5 1007.1 0.0
21/03:30am 23.1 20.1 7.6 37 8.3 ENE 13 19 7 10 1010.3 1006.9 0.0
21/03:00am 23.4 19.6 7.5 36 8.5 NE 17 22 9 12 1010.1 1006.7 0.0
21/02:30am 23.5 19.7 7.6 36 8.5 NE 17 20 9 11 1010.3 1006.9 0.0
21/02:00am 23.9 20.4 7.1 34 9.0 ENE 15 22 8 12 1010.5 1007.1 0.0
21/01:30am 23.8 20.6 7.0 34 8.9 ENE 13 19 7 10 1010.6 1007.2 0.0
21/01:00am 23.9 20.7 6.7 33 9.1 E 13 17 7 9 1010.9 1007.6 0.0
21/12:30am 24.1 21.1 5.9 31 9.5 ENE 11 13 6 7 1011.0 1007.7 0.0
21/12:00am 24.3 21.3 6.1 31 9.6 ENE 11 13 6 7 1010.9 1007.6 0.0
 
Date/Time
WST
Temp
°C
App
Temp
°C
Dew
Point
°C
Rel
Hum
%
Delta-T
°C
Wind Press
QNH
hPa
Press
MSL
hPa
Rain since
9am
mm
Dir  Spd
km/h
Gust
km/h
Spd
kts
Gust
kts
20/11:30pm 25.2 21.7 5.4 28 10.3 E 13 17 7 9 1011.3 1008.0 0.0
20/11:00pm 25.4 22.0 6.1 29 10.2 ESE 13 15 7 8 1011.6 1008.3 0.0
20/10:30pm 25.4 22.6 7.1 31 9.8 ESE 11 11 6 6 1012.1 1008.7 0.0
20/10:00pm 26.3 23.9 6.9 29 10.4 SE 9 11 5 6 1012.3 1008.9 0.0
20/09:30pm 26.7 24.6 6.7 28 10.7 E 7 9 4 5 1012.4 1009.0 0.0
20/09:00pm 27.7 25.6 6.5 26 11.4 SSE 7 11 4 6 1012.5 1009.1 0.0
20/08:30pm 28.2 24.9 6.3 25 11.8 S 13 15 7 8 1012.2 1008.8 0.0
20/08:00pm 28.6 25.6 6.1 24 12.1 S 11 15 6 8 1012.1 1008.7 0.0
20/07:30pm 29.2 25.4 6.0 23 12.5 S 15 20 8 11 1011.7 1008.4 0.0
20/07:00pm 29.7 25.4 5.1 21 13.1 SSW 17 26 9 14 1011.5 1008.2 0.0
20/06:30pm 30.7 26.2 5.9 21 13.4 SSW 19 28 10 15 1011.2 1007.9 0.0
20/06:00pm 31.3 27.1 5.7 20 13.9 SSW 17 26 9 14 1010.8 1007.4 0.0
20/05:30pm 31.3 28.1 4.9 19 14.1 SW 11 20 6 11 1010.6 1007.2 0.0
20/05:00pm 31.1 27.8 4.8 19 14.0 SE 11 17 6 9 1010.4 1007.0 0.0
20/04:30pm 32.0 28.1 5.5 19 14.4 SSE 15 28 8 15 1010.7 1007.3 0.0
20/04:00pm 31.0 26.4 3.9 18 14.2 S 17 28 9 15 1010.7 1007.3 0.0
20/03:30pm 30.9 27.2 4.6 19 14.0 SSE 13 22 7 12 1010.8 1007.4 0.0
20/03:00pm 30.9 26.1 4.6 19 14.0 SW 19 26 10 14 1010.9 1007.6 0.0
20/02:30pm 30.9 27.5 6.0 21 13.5 WNW 13 17 7 9 1011.2 1007.9 0.0
20/02:00pm 30.3 27.3 4.1 19 13.8 SSE 9 17 5 9 1011.6 1008.3 0.0
20/01:30pm 30.5 28.5 6.4 22 13.1 SW 6 13 3 7 1012.1 1008.7 0.0
20/01:00pm 28.9 26.1 6.9 25 12.0 ESE 11 20 6 11 1012.4 1009.0 0.0

Other formats

Comma delimited format used in spreadsheet applications
http://www.bom.gov.au/fwo/IDW60801/IDW60801.94449.axf

JavaScript Object Notation format (JSON) in row-major order
http://www.bom.gov.au/fwo/IDW60801/IDW60801.94449.json

Data quality

Most of these data are generated automatically and are frequently updated. Quality checks on data are not normally performed. It is possible for incorrect values to appear. Refer to information at About Latest Weather Observations and please check the disclaimer before using these data.